sensor_id;sensor_type;location;lat;lon;timestamp;pressure;altitude;pressure_sealevel;temperature;humidity
30182;BME280;16990;49.056;9.240;2022-10-16T00:00:42;98628.16;;;15.81;100.00
30182;BME280;16990;49.056;9.240;2022-10-16T00:03:10;98613.88;;;15.85;100.00
30182;BME280;16990;49.056;9.240;2022-10-16T00:05:41;98616.28;;;15.87;100.00
30182;BME280;16990;49.056;9.240;2022-10-16T00:08:10;98620.59;;;15.83;100.00
30182;BME280;16990;49.056;9.240;2022-10-16T00:10:37;98614.66;;;15.86;100.00
30182;BME280;16990;49.056;9.240;2022-10-16T00:13:05;98620.59;;;15.83;100.00
30182;BME280;16990;49.056;9.240;2022-10-16T00:15:33;98620.59;;;15.72;100.00
30182;BME280;16990;49.056;9.240;2022-10-16T00:18:01;98616.28;;;15.77;100.00
30182;BME280;16990;49.056;9.240;2022-10-16T00:20:28;98593.34;;;15.84;100.00
30182;BME280;16990;49.056;9.240;2022-10-16T00:22:56;98597.97;;;15.79;100.00
30182;BME280;16990;49.056;9.240;2022-10-16T00:25:23;98603.34;;;15.79;100.00
30182;BME280;16990;49.056;9.240;2022-10-16T00:27:49;98597.41;;;15.71;100.00
30182;BME280;16990;49.056;9.240;2022-10-16T00:30:18;98589.59;;;15.70;100.00
30182;BME280;16990;49.056;9.240;2022-10-16T00:32:44;98601.19;;;15.70;100.00
30182;BME280;16990;49.056;9.240;2022-10-16T00:35:11;98589.84;;;15.68;100.00
30182;BME280;16990;49.056;9.240;2022-10-16T00:37:37;98611.44;;;15.79;100.00
30182;BME280;16990;49.056;9.240;2022-10-16T00:40:05;98614.13;;;15.68;100.00
30182;BME280;16990;49.056;9.240;2022-10-16T00:42:32;98626.50;;;15.69;100.00
30182;BME280;16990;49.056;9.240;2022-10-16T00:44:59;98626.50;;;15.69;100.00
30182;BME280;16990;49.056;9.240;2022-10-16T00:47:30;98622.47;;;15.77;100.00
30182;BME280;16990;49.056;9.240;2022-10-16T00:50:01;98625.69;;;15.69;100.00
30182;BME280;16990;49.056;9.240;2022-10-16T00:52:29;98616.78;;;15.63;100.00
30182;BME280;16990;49.056;9.240;2022-10-16T00:54:57;98618.41;;;15.64;100.00
30182;BME280;16990;49.056;9.240;2022-10-16T00:57:24;98622.22;;;15.73;100.00
30182;BME280;16990;49.056;9.240;2022-10-16T00:59:52;98623.81;;;15.69;100.00
30182;BME280;16990;49.056;9.240;2022-10-16T01:02:19;98628.66;;;15.67;100.00
30182;BME280;16990;49.056;9.240;2022-10-16T01:04:49;98622.72;;;15.60;100.00
30182;BME280;16990;49.056;9.240;2022-10-16T01:07:30;98618.97;;;15.66;100.00
30182;BME280;16990;49.056;9.240;2022-10-16T01:10:07;98615.19;;;15.72;100.00
30182;BME280;16990;49.056;9.240;2022-10-16T01:12:40;98615.16;;;15.67;100.00
30182;BME280;16990;49.056;9.240;2022-10-16T01:15:13;98622.16;;;15.63;100.00
30182;BME280;16990;49.056;9.240;2022-10-16T01:17:45;98615.75;;;15.74;100.00
30182;BME280;16990;49.056;9.240;2022-10-16T01:20:21;98619.78;;;15.72;100.00
30182;BME280;16990;49.056;9.240;2022-10-16T01:23:02;98616.28;;;15.77;100.00
30182;BME280;16990;49.056;9.240;2022-10-16T01:28:22;98597.94;;;15.84;100.00
30182;BME280;16990;49.056;9.240;2022-10-16T01:30:52;98599.03;;;15.83;100.00
30182;BME280;16990;49.056;9.240;2022-10-16T01:33:24;98604.41;;;15.93;100.00
30182;BME280;16990;49.056;9.240;2022-10-16T01:35:59;98611.69;;;15.92;100.00
30182;BME280;16990;49.056;9.240;2022-10-16T01:38:31;98616.00;;;15.93;100.00
30182;BME280;16990;49.056;9.240;2022-10-16T01:41:03;98625.44;;;15.91;100.00
30182;BME280;16990;49.056;9.240;2022-10-16T01:43:36;98630.81;;;15.96;100.00
30182;BME280;16990;49.056;9.240;2022-10-16T01:46:05;98622.19;;;15.99;100.00
30182;BME280;16990;49.056;9.240;2022-10-16T01:48:32;98631.91;;;16.00;100.00
30182;BME280;16990;49.056;9.240;2022-10-16T01:51:03;98629.22;;;15.85;100.00
30182;BME280;16990;49.056;9.240;2022-10-16T01:53:31;98624.38;;;15.97;100.00
30182;BME280;16990;49.056;9.240;2022-10-16T01:56:00;98627.88;;;15.98;100.00
30182;BME280;16990;49.056;9.240;2022-10-16T01:58:30;98628.66;;;15.98;100.00
30182;BME280;16990;49.056;9.240;2022-10-16T02:01:02;98627.59;;;15.94;100.00
30182;BME280;16990;49.056;9.240;2022-10-16T02:03:29;98623.81;;;15.85;100.00
30182;BME280;16990;49.056;9.240;2022-10-16T02:05:58;98616.53;;;15.80;100.00
30182;BME280;16990;49.056;9.240;2022-10-16T02:08:28;98616.81;;;15.84;100.00
30182;BME280;16990;49.056;9.240;2022-10-16T02:10:56;98606.31;;;15.77;100.00
30182;BME280;16990;49.056;9.240;2022-10-16T02:13:25;98608.75;;;15.79;100.00
30182;BME280;16990;49.056;9.240;2022-10-16T02:15:54;98619.25;;;15.75;100.00
30182;BME280;16990;49.056;9.240;2022-10-16T02:18:22;98608.72;;;15.68;100.00
30182;BME280;16990;49.056;9.240;2022-10-16T02:20:52;98611.44;;;15.73;100.00
30182;BME280;16990;49.056;9.240;2022-10-16T02:23:24;98627.63;;;15.73;100.00
30182;BME280;16990;49.056;9.240;2022-10-16T02:25:56;98621.69;;;15.77;100.00
30182;BME280;16990;49.056;9.240;2022-10-16T02:28:28;98624.38;;;15.77;100.00
30182;BME280;16990;49.056;9.240;2022-10-16T02:31:00;98617.91;;;15.93;100.00
30182;BME280;16990;49.056;9.240;2022-10-16T02:33:30;98617.09;;;15.98;100.00
30182;BME280;16990;49.056;9.240;2022-10-16T02:35:57;98621.69;;;15.97;100.00
30182;BME280;16990;49.056;9.240;2022-10-16T02:38:25;98623.53;;;15.97;100.00
30182;BME280;16990;49.056;9.240;2022-10-16T02:45:55;98620.88;;;15.81;100.00
30182;BME280;16990;49.056;9.240;2022-10-16T02:48:22;98624.88;;;15.63;100.00
30182;BME280;16990;49.056;9.240;2022-10-16T02:50:50;98621.69;;;15.77;100.00
30182;BME280;16990;49.056;9.240;2022-10-16T02:53:16;98622.75;;;15.70;100.00
30182;BME280;16990;49.056;9.240;2022-10-16T02:55:43;98622.75;;;15.81;100.00
30182;BME280;16990;49.056;9.240;2022-10-16T02:58:10;98622.22;;;15.73;100.00
30182;BME280;16990;49.056;9.240;2022-10-16T03:00:37;98626.25;;;15.76;100.00
30182;BME280;16990;49.056;9.240;2022-10-16T03:03:03;98633.00;;;15.73;100.00
30182;BME280;16990;49.056;9.240;2022-10-16T03:05:30;98637.06;;;15.76;100.00
30182;BME280;16990;49.056;9.240;2022-10-16T03:07:58;98647.03;;;15.76;100.00
30182;BME280;16990;49.056;9.240;2022-10-16T03:10:25;98637.59;;;15.83;100.00
30182;BME280;16990;49.056;9.240;2022-10-16T03:12:52;98638.41;;;15.79;100.00
30182;BME280;16990;49.056;9.240;2022-10-16T03:15:19;98632.72;;;15.75;100.00
30182;BME280;16990;49.056;9.240;2022-10-16T03:17:46;98632.72;;;15.70;100.00
30182;BME280;16990;49.056;9.240;2022-10-16T03:20:13;98639.97;;;15.69;100.00
30182;BME280;16990;49.056;9.240;2022-10-16T03:22:40;98625.72;;;15.79;100.00
30182;BME280;16990;49.056;9.240;2022-10-16T03:25:08;98636.75;;;15.72;100.00
30182;BME280;16990;49.056;9.240;2022-10-16T03:27:35;98628.97;;;15.71;100.00
30182;BME280;16990;49.056;9.240;2022-10-16T03:30:02;98641.03;;;15.63;100.00
30182;BME280;16990;49.056;9.240;2022-10-16T03:32:28;98646.72;;;15.67;100.00
30182;BME280;16990;49.056;9.240;2022-10-16T03:34:55;98647.53;;;15.62;100.00
30182;BME280;16990;49.056;9.240;2022-10-16T03:37:22;98652.91;;;15.57;100.00
30182;BME280;16990;49.056;9.240;2022-10-16T03:39:49;98641.59;;;15.55;100.00
30182;BME280;16990;49.056;9.240;2022-10-16T03:42:17;98649.13;;;15.53;100.00
30182;BME280;16990;49.056;9.240;2022-10-16T03:44:44;98649.66;;;15.50;100.00
30182;BME280;16990;49.056;9.240;2022-10-16T03:47:10;98651.81;;;15.48;100.00
30182;BME280;16990;49.056;9.240;2022-10-16T03:49:37;98651.28;;;15.46;100.00
30182;BME280;16990;49.056;9.240;2022-10-16T03:52:04;98642.13;;;15.47;100.00
30182;BME280;16990;49.056;9.240;2022-10-16T03:54:30;98644.00;;;15.41;100.00
30182;BME280;16990;49.056;9.240;2022-10-16T03:56:57;98642.09;;;15.42;100.00
30182;BME280;16990;49.056;9.240;2022-10-16T03:59:25;98635.91;;;15.36;100.00
30182;BME280;16990;49.056;9.240;2022-10-16T04:01:52;98646.13;;;15.34;100.00
30182;BME280;16990;49.056;9.240;2022-10-16T04:04:18;98640.47;;;15.30;100.00
30182;BME280;16990;49.056;9.240;2022-10-16T04:06:45;98637.78;;;15.25;100.00
30182;BME280;16990;49.056;9.240;2022-10-16T04:09:12;98642.88;;;15.27;100.00
30182;BME280;16990;49.056;9.240;2022-10-16T04:11:38;98653.09;;;15.25;100.00
30182;BME280;16990;49.056;9.240;2022-10-16T04:14:05;98653.91;;;15.20;100.00
30182;BME280;16990;49.056;9.240;2022-10-16T04:16:33;98653.09;;;15.15;100.00
30182;BME280;16990;49.056;9.240;2022-10-16T04:19:00;98657.13;;;15.12;100.00
30182;BME280;16990;49.056;9.240;2022-10-16T04:21:27;98653.88;;;15.05;100.00
30182;BME280;16990;49.056;9.240;2022-10-16T04:23:53;98655.47;;;15.06;100.00
30182;BME280;16990;49.056;9.240;2022-10-16T04:26:20;98664.66;;;15.05;100.00
30182;BME280;16990;49.056;9.240;2022-10-16T04:28:47;98666.78;;;15.03;100.00
30182;BME280;16990;49.056;9.240;2022-10-16T04:31:13;98656.56;;;15.00;100.00
30182;BME280;16990;49.056;9.240;2022-10-16T04:33:43;98655.47;;;15.06;100.00
30182;BME280;16990;49.056;9.240;2022-10-16T04:36:10;98666.28;;;15.11;100.00
30182;BME280;16990;49.056;9.240;2022-10-16T04:38:36;98661.22;;;15.30;100.00
30182;BME280;16990;49.056;9.240;2022-10-16T04:41:05;98670.41;;;15.49;100.00
30182;BME280;16990;49.056;9.240;2022-10-16T04:43:33;98674.72;;;15.45;100.00
30182;BME280;16990;49.056;9.240;2022-10-16T04:46:00;98675.50;;;15.36;100.00
30182;BME280;16990;49.056;9.240;2022-10-16T04:48:27;98680.34;;;15.23;100.00
30182;BME280;16990;49.056;9.240;2022-10-16T04:50:55;98690.00;;;15.14;100.00
30182;BME280;16990;49.056;9.240;2022-10-16T04:53:21;98682.47;;;15.16;100.00
30182;BME280;16990;49.056;9.240;2022-10-16T04:55:49;98693.72;;;15.08;100.00
30182;BME280;16990;49.056;9.240;2022-10-16T04:58:16;98675.44;;;15.15;100.00
30182;BME280;16990;49.056;9.240;2022-10-16T05:00:43;98682.94;;;15.03;100.00
30182;BME280;16990;49.056;9.240;2022-10-16T05:03:11;98690.47;;;15.01;100.00
30182;BME280;16990;49.056;9.240;2022-10-16T05:05:42;98686.47;;;15.08;100.00
30182;BME280;16990;49.056;9.240;2022-10-16T05:08:10;98692.38;;;15.10;100.00
30182;BME280;16990;49.056;9.240;2022-10-16T05:10:37;98699.38;;;15.01;100.00
30182;BME280;16990;49.056;9.240;2022-10-16T05:13:04;98702.88;;;14.97;100.00
30182;BME280;16990;49.056;9.240;2022-10-16T05:15:30;98693.16;;;14.96;100.00
30182;BME280;16990;49.056;9.240;2022-10-16T05:17:57;98702.81;;;14.92;100.00
30182;BME280;16990;49.056;9.240;2022-10-16T05:20:24;98699.06;;;14.93;100.00
30182;BME280;16990;49.056;9.240;2022-10-16T05:22:51;98699.84;;;14.88;100.00
30182;BME280;16990;49.056;9.240;2022-10-16T05:25:19;98691.81;;;14.98;100.00
30182;BME280;16990;49.056;9.240;2022-10-16T05:27:47;98702.28;;;14.89;100.00
30182;BME280;16990;49.056;9.240;2022-10-16T05:30:15;98713.59;;;14.92;100.00
30182;BME280;16990;49.056;9.240;2022-10-16T05:32:46;98702.31;;;14.95;100.00
30182;BME280;16990;49.056;9.240;2022-10-16T05:35:13;98699.31;;;14.91;100.00
30182;BME280;16990;49.056;9.240;2022-10-16T05:37:40;98697.44;;;14.92;100.00
30182;BME280;16990;49.056;9.240;2022-10-16T05:40:08;98699.59;;;14.89;100.00
30182;BME280;16990;49.056;9.240;2022-10-16T05:42:36;98701.75;;;14.87;100.00
30182;BME280;16990;49.056;9.240;2022-10-16T05:45:04;98693.66;;;14.87;100.00
30182;BME280;16990;49.056;9.240;2022-10-16T05:47:30;98693.13;;;14.85;100.00
30182;BME280;16990;49.056;9.240;2022-10-16T05:49:57;98696.91;;;14.89;100.00
30182;BME280;16990;49.056;9.240;2022-10-16T05:52:24;98691.78;;;14.88;100.00
30182;BME280;16990;49.056;9.240;2022-10-16T05:54:50;98695.56;;;14.87;100.00
30182;BME280;16990;49.056;9.240;2022-10-16T05:57:17;98701.75;;;14.87;100.00
30182;BME280;16990;49.056;9.240;2022-10-16T05:59:45;98706.84;;;14.89;100.00
30182;BME280;16990;49.056;9.240;2022-10-16T06:02:13;98715.75;;;14.89;100.00
30182;BME280;16990;49.056;9.240;2022-10-16T06:04:40;98730.03;;;14.90;100.00
30182;BME280;16990;49.056;9.240;2022-10-16T06:07:07;98719.25;;;14.90;100.00
30182;BME280;16990;49.056;9.240;2022-10-16T06:09:33;98726.00;;;14.93;100.00
30182;BME280;16990;49.056;9.240;2022-10-16T06:12:00;98726.25;;;14.91;100.00
30182;BME280;16990;49.056;9.240;2022-10-16T06:14:27;98723.53;;;14.86;100.00
30182;BME280;16990;49.056;9.240;2022-10-16T06:16:55;98725.19;;;14.92;100.00
30182;BME280;16990;49.056;9.240;2022-10-16T06:19:22;98718.16;;;14.91;100.00
30182;BME280;16990;49.056;9.240;2022-10-16T06:21:49;98721.66;;;14.92;100.00
30182;BME280;16990;49.056;9.240;2022-10-16T06:24:15;98731.63;;;14.96;100.00
30182;BME280;16990;49.056;9.240;2022-10-16T06:26:42;98730.59;;;14.97;100.00
30182;BME280;16990;49.056;9.240;2022-10-16T06:29:09;98728.16;;;14.96;100.00
30182;BME280;16990;49.056;9.240;2022-10-16T06:31:35;98708.19;;;14.92;100.00
30182;BME280;16990;49.056;9.240;2022-10-16T06:34:03;98716.81;;;14.94;100.00
30182;BME280;16990;49.056;9.240;2022-10-16T06:36:34;98713.34;;;14.93;100.00
30182;BME280;16990;49.056;9.240;2022-10-16T06:39:01;98730.34;;;15.04;100.00
30182;BME280;16990;49.056;9.240;2022-10-16T06:41:28;98729.56;;;15.08;100.00
30182;BME280;16990;49.056;9.240;2022-10-16T06:43:55;98735.75;;;15.09;100.00
30182;BME280;16990;49.056;9.240;2022-10-16T06:46:23;98740.59;;;15.07;100.00
30182;BME280;16990;49.056;9.240;2022-10-16T06:48:52;98741.19;;;15.19;100.00
30182;BME280;16990;49.056;9.240;2022-10-16T06:51:21;98760.00;;;15.14;100.00
30182;BME280;16990;49.056;9.240;2022-10-16T06:53:50;98751.38;;;15.12;100.00
30182;BME280;16990;49.056;9.240;2022-10-16T06:56:19;98754.63;;;15.14;100.00
30182;BME280;16990;49.056;9.240;2022-10-16T06:58:46;98759.78;;;15.21;100.00
30182;BME280;16990;49.056;9.240;2022-10-16T07:01:14;98763.28;;;15.21;100.00
30182;BME280;16990;49.056;9.240;2022-10-16T07:03:43;98768.97;;;15.30;100.00
30182;BME280;16990;49.056;9.240;2022-10-16T07:06:11;98779.22;;;15.33;100.00
30182;BME280;16990;49.056;9.240;2022-10-16T07:08:42;98786.53;;;15.43;100.00
30182;BME280;16990;49.056;9.240;2022-10-16T07:11:11;98790.34;;;15.52;100.00
30182;BME280;16990;49.056;9.240;2022-10-16T07:13:39;98791.69;;;15.60;100.00
30182;BME280;16990;49.056;9.240;2022-10-16T07:16:09;98795.75;;;15.57;100.00
30182;BME280;16990;49.056;9.240;2022-10-16T07:18:37;98793.56;;;15.54;100.00
30182;BME280;16990;49.056;9.240;2022-10-16T07:21:06;98793.56;;;15.54;100.00
30182;BME280;16990;49.056;9.240;2022-10-16T07:23:33;98799.47;;;15.56;100.00
30182;BME280;16990;49.056;9.240;2022-10-16T07:26:02;98798.19;;;15.59;100.00
30182;BME280;16990;49.056;9.240;2022-10-16T07:28:29;98803.56;;;15.59;100.00
30182;BME280;16990;49.056;9.240;2022-10-16T07:31:00;98794.63;;;15.53;100.00
30182;BME280;16990;49.056;9.240;2022-10-16T07:33:28;98806.53;;;15.67;100.00
30182;BME280;16990;49.056;9.240;2022-10-16T07:35:55;98810.31;;;15.66;100.00
30182;BME280;16990;49.056;9.240;2022-10-16T07:38:22;98806.03;;;15.70;100.00
30182;BME280;16990;49.056;9.240;2022-10-16T07:40:56;98796.88;;;15.71;100.00
30182;BME280;16990;49.056;9.240;2022-10-16T07:43:24;98803.88;;;15.78;100.00
30182;BME280;16990;49.056;9.240;2022-10-16T07:45:51;98792.03;;;15.73;100.00
30182;BME280;16990;49.056;9.240;2022-10-16T07:48:19;98816.03;;;15.75;100.00
30182;BME280;16990;49.056;9.240;2022-10-16T07:50:45;98816.84;;;15.76;100.00
30182;BME280;16990;49.056;9.240;2022-10-16T07:53:14;98806.59;;;15.78;100.00
30182;BME280;16990;49.056;9.240;2022-10-16T07:55:40;98815.28;;;15.90;100.00
30182;BME280;16990;49.056;9.240;2022-10-16T07:58:07;98819.03;;;15.89;100.00
30182;BME280;16990;49.056;9.240;2022-10-16T08:00:36;98833.06;;;15.91;100.00
30182;BME280;16990;49.056;9.240;2022-10-16T08:03:03;98825.53;;;16.13;100.00
30182;BME280;16990;49.056;9.240;2022-10-16T08:05:32;98818.81;;;16.26;100.00
30182;BME280;16990;49.056;9.240;2022-10-16T08:07:59;98837.72;;;16.31;100.00
30182;BME280;16990;49.056;9.240;2022-10-16T08:10:27;98835.00;;;16.36;100.00
30182;BME280;16990;49.056;9.240;2022-10-16T08:12:54;98838.50;;;16.37;100.00
30182;BME280;16990;49.056;9.240;2022-10-16T08:15:21;98848.75;;;16.35;100.00
30182;BME280;16990;49.056;9.240;2022-10-16T08:17:56;98833.66;;;16.49;100.00
30182;BME280;16990;49.056;9.240;2022-10-16T08:20:23;98841.78;;;16.54;100.00
30182;BME280;16990;49.056;9.240;2022-10-16T08:22:49;98831.78;;;16.55;100.00
30182;BME280;16990;49.056;9.240;2022-10-16T08:25:16;98839.06;;;16.80;100.00
30182;BME280;16990;49.056;9.240;2022-10-16T08:27:43;98848.78;;;16.71;100.00
30182;BME280;16990;49.056;9.240;2022-10-16T08:30:10;98847.97;;;16.75;100.00
30182;BME280;16990;49.056;9.240;2022-10-16T08:32:37;98854.19;;;16.91;100.00
30182;BME280;16990;49.056;9.240;2022-10-16T08:35:06;98849.31;;;17.04;100.00
30182;BME280;16990;49.056;9.240;2022-10-16T08:37:33;98861.47;;;17.06;100.00
30182;BME280;16990;49.056;9.240;2022-10-16T08:39:59;98859.03;;;17.05;100.00
30182;BME280;16990;49.056;9.240;2022-10-16T08:42:44;98847.13;;;17.16;100.00
30182;BME280;16990;49.056;9.240;2022-10-16T08:45:28;98846.34;;;17.10;100.00
30182;BME280;16990;49.056;9.240;2022-10-16T08:48:14;98862.25;;;17.22;100.00
30182;BME280;16990;49.056;9.240;2022-10-16T08:50:47;98828.25;;;17.00;100.00
30182;BME280;16990;49.056;9.240;2022-10-16T08:53:16;98867.59;;;17.37;100.00
30182;BME280;16990;49.056;9.240;2022-10-16T08:55:46;98876.75;;;17.47;100.00
30182;BME280;16990;49.056;9.240;2022-10-16T08:58:17;98861.59;;;17.56;100.00
30182;BME280;16990;49.056;9.240;2022-10-16T09:00:46;98861.31;;;17.52;100.00
30182;BME280;16990;49.056;9.240;2022-10-16T09:03:22;98852.69;;;17.55;100.00
30182;BME280;16990;49.056;9.240;2022-10-16T09:06:04;98859.41;;;17.63;100.00
30182;BME280;16990;49.056;9.240;2022-10-16T09:08:41;98846.94;;;17.72;100.00
30182;BME280;16990;49.056;9.240;2022-10-16T09:11:17;98863.13;;;17.77;100.00
30182;BME280;16990;49.056;9.240;2022-10-16T09:13:51;98864.19;;;17.76;100.00
30182;BME280;16990;49.056;9.240;2022-10-16T09:16:22;98875.81;;;17.92;100.00
30182;BME280;16990;49.056;9.240;2022-10-16T09:18:55;98871.72;;;17.95;100.00
30182;BME280;16990;49.056;9.240;2022-10-16T09:21:28;98883.53;;;18.14;100.00
30182;BME280;16990;49.056;9.240;2022-10-16T09:23:58;98892.44;;;18.15;100.00
30182;BME280;16990;49.056;9.240;2022-10-16T09:26:26;98893.84;;;18.07;99.31
30182;BME280;16990;49.056;9.240;2022-10-16T09:28:53;98897.34;;;18.07;100.00
30182;BME280;16990;49.056;9.240;2022-10-16T09:31:22;98887.69;;;17.96;100.00
30182;BME280;16990;49.056;9.240;2022-10-16T09:33:52;98888.94;;;18.14;100.00
30182;BME280;16990;49.056;9.240;2022-10-16T09:36:21;98904.63;;;18.17;100.00
30182;BME280;16990;49.056;9.240;2022-10-16T09:39:02;98907.59;;;18.16;100.00
30182;BME280;16990;49.056;9.240;2022-10-16T09:41:29;98912.75;;;18.12;100.00
30182;BME280;16990;49.056;9.240;2022-10-16T09:43:57;98911.16;;;18.11;100.00
30182;BME280;16990;49.056;9.240;2022-10-16T09:46:28;98919.34;;;18.40;98.53
30182;BME280;16990;49.056;9.240;2022-10-16T09:48:57;98913.63;;;18.47;99.74
30182;BME280;16990;49.056;9.240;2022-10-16T09:51:26;98927.66;;;18.54;98.29
30182;BME280;16990;49.056;9.240;2022-10-16T09:53:59;98934.56;;;18.76;98.50
30182;BME280;16990;49.056;9.240;2022-10-16T09:56:27;98901.09;;;18.61;97.92
30182;BME280;16990;49.056;9.240;2022-10-16T09:58:56;98933.91;;;18.94;94.61
30182;BME280;16990;49.056;9.240;2022-10-16T10:01:28;98930.00;;;19.05;94.65
30182;BME280;16990;49.056;9.240;2022-10-16T10:03:56;98910.81;;;19.02;95.29
30182;BME280;16990;49.056;9.240;2022-10-16T10:06:30;98928.34;;;19.39;91.26
30182;BME280;16990;49.056;9.240;2022-10-16T10:09:03;98901.53;;;19.37;92.60
30182;BME280;16990;49.056;9.240;2022-10-16T10:11:42;98915.44;;;19.54;90.11
30182;BME280;16990;49.056;9.240;2022-10-16T10:14:17;98926.16;;;19.65;91.47
30182;BME280;16990;49.056;9.240;2022-10-16T10:16:44;98932.78;;;19.83;85.65
30182;BME280;16990;49.056;9.240;2022-10-16T10:19:14;98933.13;;;19.76;87.14
30182;BME280;16990;49.056;9.240;2022-10-16T10:21:41;98945.88;;;20.00;87.01
30182;BME280;16990;49.056;9.240;2022-10-16T10:24:12;98948.19;;;20.11;83.12
30182;BME280;16990;49.056;9.240;2022-10-16T10:26:44;98936.56;;;20.06;83.99
30182;BME280;16990;49.056;9.240;2022-10-16T10:29:19;98907.81;;;20.05;82.91
30182;BME280;16990;49.056;9.240;2022-10-16T10:31:57;98938.69;;;20.28;81.54
30182;BME280;16990;49.056;9.240;2022-10-16T10:34:40;98948.75;;;20.27;82.47
30182;BME280;16990;49.056;9.240;2022-10-16T10:37:24;98943.31;;;20.27;83.61
30182;BME280;16990;49.056;9.240;2022-10-16T10:40:00;98931.50;;;20.18;82.91
30182;BME280;16990;49.056;9.240;2022-10-16T10:42:32;98944.72;;;20.25;83.41
30182;BME280;16990;49.056;9.240;2022-10-16T10:45:18;98949.22;;;20.34;80.86
30182;BME280;16990;49.056;9.240;2022-10-16T10:48:00;98958.66;;;20.37;82.02
30182;BME280;16990;49.056;9.240;2022-10-16T10:50:34;98953.41;;;20.46;80.82
30182;BME280;16990;49.056;9.240;2022-10-16T10:53:10;98949.81;;;20.31;82.86
30182;BME280;16990;49.056;9.240;2022-10-16T10:55:44;98934.38;;;20.27;82.34
30182;BME280;16990;49.056;9.240;2022-10-16T10:58:29;98955.59;;;20.44;82.07
30182;BME280;16990;49.056;9.240;2022-10-16T11:01:07;98927.47;;;20.15;83.37
30182;BME280;16990;49.056;9.240;2022-10-16T11:03:54;98952.69;;;20.40;81.61
30182;BME280;16990;49.056;9.240;2022-10-16T11:06:28;98940.47;;;20.37;81.26
30182;BME280;16990;49.056;9.240;2022-10-16T11:08:59;98951.78;;;20.45;81.45
30182;BME280;16990;49.056;9.240;2022-10-16T11:11:33;98936.16;;;20.36;80.48
30182;BME280;16990;49.056;9.240;2022-10-16T11:14:04;98929.69;;;20.32;82.67
30182;BME280;16990;49.056;9.240;2022-10-16T11:16:35;98951.84;;;20.39;82.52
30182;BME280;16990;49.056;9.240;2022-10-16T11:19:05;98942.25;;;20.47;81.91
30182;BME280;16990;49.056;9.240;2022-10-16T11:21:43;98944.75;;;20.44;82.13
30182;BME280;16990;49.056;9.240;2022-10-16T11:24:18;98948.50;;;20.48;83.37
30182;BME280;16990;49.056;9.240;2022-10-16T11:26:50;98934.78;;;20.58;79.69
30182;BME280;16990;49.056;9.240;2022-10-16T11:29:25;98940.72;;;20.60;80.87
30182;BME280;16990;49.056;9.240;2022-10-16T11:31:57;98942.50;;;20.70;81.96
30182;BME280;16990;49.056;9.240;2022-10-16T11:34:29;98933.28;;;20.85;79.18
30182;BME280;16990;49.056;9.240;2022-10-16T11:37:03;98927.66;;;20.95;80.35
30182;BME280;16990;49.056;9.240;2022-10-16T11:39:32;98936.00;;;20.85;79.49
30182;BME280;16990;49.056;9.240;2022-10-16T11:42:03;98900.00;;;20.93;77.06
30182;BME280;16990;49.056;9.240;2022-10-16T11:44:38;98908.91;;;20.79;77.47
30182;BME280;16990;49.056;9.240;2022-10-16T11:47:15;98905.75;;;20.72;77.07
30182;BME280;16990;49.056;9.240;2022-10-16T11:49:47;98928.63;;;20.71;76.69
30182;BME280;16990;49.056;9.240;2022-10-16T11:52:20;98908.47;;;20.72;75.28
30182;BME280;16990;49.056;9.240;2022-10-16T11:54:52;98939.78;;;20.70;77.33
30182;BME280;16990;49.056;9.240;2022-10-16T11:57:24;98935.63;;;20.53;79.26
30182;BME280;16990;49.056;9.240;2022-10-16T11:59:55;98945.06;;;20.61;80.59
30182;BME280;16990;49.056;9.240;2022-10-16T12:02:33;98929.88;;;20.60;82.08
30182;BME280;16990;49.056;9.240;2022-10-16T12:05:11;98947.97;;;21.16;79.24
30182;BME280;16990;49.056;9.240;2022-10-16T12:07:45;98940.75;;;21.25;76.11
30182;BME280;16990;49.056;9.240;2022-10-16T12:10:20;98947.63;;;21.37;75.35
30182;BME280;16990;49.056;9.240;2022-10-16T12:12:48;98919.38;;;21.19;75.61
30182;BME280;16990;49.056;9.240;2022-10-16T12:15:24;98948.63;;;21.27;78.10
30182;BME280;16990;49.056;9.240;2022-10-16T12:17:51;98946.75;;;21.41;75.70
30182;BME280;16990;49.056;9.240;2022-10-16T12:20:22;98921.44;;;20.94;75.30
30182;BME280;16990;49.056;9.240;2022-10-16T12:22:52;98944.25;;;21.26;74.90
30182;BME280;16990;49.056;9.240;2022-10-16T12:25:23;98917.06;;;21.12;72.62
30182;BME280;16990;49.056;9.240;2022-10-16T12:28:00;98944.50;;;21.30;74.36
30182;BME280;16990;49.056;9.240;2022-10-16T12:30:30;98915.59;;;21.34;73.32
30182;BME280;16990;49.056;9.240;2022-10-16T12:32:59;98937.00;;;21.82;72.44
30182;BME280;16990;49.056;9.240;2022-10-16T12:35:29;98937.69;;;21.74;70.12
30182;BME280;16990;49.056;9.240;2022-10-16T12:38:06;98942.84;;;21.61;71.14
30182;BME280;16990;49.056;9.240;2022-10-16T12:40:35;98935.47;;;21.62;70.76
30182;BME280;16990;49.056;9.240;2022-10-16T12:43:25;98921.81;;;21.67;71.40
30182;BME280;16990;49.056;9.240;2022-10-16T12:46:01;98933.88;;;21.61;72.60
30182;BME280;16990;49.056;9.240;2022-10-16T12:48:28;98930.34;;;21.60;70.58
30182;BME280;16990;49.056;9.240;2022-10-16T12:50:56;98931.34;;;21.78;71.66
30182;BME280;16990;49.056;9.240;2022-10-16T12:53:23;98922.91;;;21.66;70.48
30182;BME280;16990;49.056;9.240;2022-10-16T12:56:00;98925.72;;;21.61;70.97
30182;BME280;16990;49.056;9.240;2022-10-16T12:58:43;98921.88;;;21.48;72.68
30182;BME280;16990;49.056;9.240;2022-10-16T13:01:26;98926.13;;;21.68;71.59
30182;BME280;16990;49.056;9.240;2022-10-16T13:04:09;98933.09;;;21.60;70.66
30182;BME280;16990;49.056;9.240;2022-10-16T13:06:46;98925.88;;;21.37;71.12
30182;BME280;16990;49.056;9.240;2022-10-16T13:09:27;98935.50;;;21.48;71.73
30182;BME280;16990;49.056;9.240;2022-10-16T13:12:10;98931.44;;;21.59;70.87
30182;BME280;16990;49.056;9.240;2022-10-16T13:17:36;98942.81;;;21.48;71.34